createdAt,value
2022-10-28T00:04:22.024Z,86.19
2022-10-28T00:09:20.763Z,85.66
2022-10-28T00:14:19.773Z,85.75
2022-10-28T00:19:18.609Z,85.89
2022-10-28T00:24:17.420Z,85.63
2022-10-28T00:29:18.890Z,85.74
2022-10-28T00:34:19.626Z,85.51
2022-10-28T00:39:20.841Z,85.35
2022-10-28T00:44:44.697Z,85.65
2022-10-28T00:49:47.411Z,86.02
2022-10-28T00:54:47.072Z,85.58
2022-10-28T00:59:49.777Z,85.28
2022-10-28T01:04:48.931Z,85.52
2022-10-28T01:09:47.918Z,85.27
2022-10-28T01:15:24.061Z,85.75
2022-10-28T01:20:43.286Z,85.33
2022-10-28T01:25:59.452Z,85.21
2022-10-28T01:31:36.215Z,85.35
2022-10-28T01:37:04.839Z,85.08
2022-10-28T01:42:24.816Z,85.60
2022-10-28T01:47:47.269Z,85.13
2022-10-28T01:52:48.144Z,85.41
2022-10-28T01:57:50.736Z,85.43
2022-10-28T02:02:51.013Z,84.97
2022-10-28T02:07:52.869Z,84.45
2022-10-28T02:12:56.439Z,84.76
2022-10-28T02:18:10.240Z,84.96
2022-10-28T02:23:17.794Z,85.15
2022-10-28T02:35:03.800Z,85.52
2022-10-28T02:40:34.088Z,85.69
2022-10-28T02:45:40.677Z,85.36
2022-10-28T02:50:46.444Z,84.97
2022-10-28T02:55:51.511Z,85.53
2022-10-28T03:00:50.964Z,84.87
2022-10-28T03:05:49.672Z,84.75
2022-10-28T03:10:48.352Z,84.82
2022-10-28T03:15:47.598Z,84.69
2022-10-28T03:20:47.301Z,85.02
2022-10-28T03:25:46.104Z,85.01
2022-10-28T03:30:44.866Z,84.72
2022-10-28T03:35:44.685Z,84.87
2022-10-28T03:40:43.456Z,85.32
2022-10-28T03:45:42.359Z,85.30
2022-10-28T03:50:41.087Z,85.25
2022-10-28T03:55:39.732Z,85.62
2022-10-28T04:00:38.389Z,85.42
2022-10-28T04:05:37.058Z,85.65
2022-10-28T04:10:36.191Z,84.66
2022-10-28T04:15:34.933Z,85.32
2022-10-28T04:20:33.777Z,84.85
2022-10-28T04:25:32.584Z,85.22
2022-10-28T04:30:31.365Z,85.44
2022-10-28T04:35:29.985Z,81.85
2022-10-28T04:40:28.625Z,80.21
2022-10-28T04:45:27.357Z,79.83
2022-10-28T04:50:26.934Z,79.99
2022-10-28T04:55:25.701Z,79.17
2022-10-28T05:00:25.110Z,79.19
2022-10-28T05:05:23.769Z,80.50
2022-10-28T05:10:22.584Z,80.45
2022-10-28T05:15:21.355Z,82.50
2022-10-28T05:20:20.549Z,83.38
2022-10-28T05:25:20.483Z,83.84
2022-10-28T05:30:19.914Z,83.80
2022-10-28T05:35:18.649Z,83.92
2022-10-28T05:40:17.553Z,84.58
2022-10-28T05:45:16.453Z,84.55
2022-10-28T05:50:17.583Z,84.79
2022-10-28T05:55:19.524Z,84.59
2022-10-28T06:00:20.856Z,84.84
2022-10-28T06:05:20.394Z,85.19
2022-10-28T06:10:19.086Z,84.96
2022-10-28T06:15:16.286Z,84.85
2022-10-28T06:20:16.770Z,84.66
2022-10-28T06:25:16.175Z,84.57
2022-10-28T06:30:14.970Z,85.05
2022-10-28T06:35:14.156Z,84.74
2022-10-28T06:40:12.919Z,84.91
2022-10-28T06:45:11.652Z,84.35
2022-10-28T06:50:11.896Z,83.82
2022-10-28T06:55:10.733Z,83.52
2022-10-28T07:00:10.148Z,83.63
2022-10-28T07:05:09.305Z,83.11
2022-10-28T07:10:08.166Z,82.69
2022-10-28T07:15:07.664Z,82.27
2022-10-28T07:20:06.897Z,81.70
2022-10-28T07:25:06.271Z,80.53
2022-10-28T07:30:05.998Z,80.24
2022-10-28T07:35:05.285Z,80.22
2022-10-28T07:40:04.406Z,79.64
2022-10-28T07:45:03.907Z,79.58
2022-10-28T07:50:03.300Z,79.03
2022-10-28T07:55:02.846Z,77.82
2022-10-28T08:00:01.794Z,77.10
2022-10-28T08:05:09.553Z,76.63
2022-10-28T08:10:08.768Z,76.19
2022-10-28T08:15:10.431Z,76.45
2022-10-28T08:20:09.446Z,75.65
2022-10-28T08:25:08.646Z,75.35
2022-10-28T08:30:08.333Z,73.95
2022-10-28T08:35:07.388Z,74.13
2022-10-28T08:40:07.090Z,74.43
2022-10-28T08:45:21.398Z,74.91
2022-10-28T08:50:23.073Z,74.27
2022-10-28T08:55:31.062Z,74.33
2022-10-28T09:00:34.051Z,75.33
2022-10-28T09:05:33.337Z,75.09
2022-10-28T09:10:55.352Z,75.31
2022-10-28T09:16:09.340Z,74.64
2022-10-28T09:21:20.060Z,75.11
2022-10-28T09:26:44.619Z,74.96
2022-10-28T09:31:58.886Z,74.57
2022-10-28T09:37:12.761Z,74.10
2022-10-28T09:42:22.296Z,73.88
2022-10-28T09:47:26.940Z,72.24
2022-10-28T09:52:49.523Z,70.88
2022-10-28T09:57:48.271Z,71.28
2022-10-28T10:02:47.385Z,71.45
2022-10-28T10:07:54.639Z,71.55
2022-10-28T10:12:57.520Z,71.43
2022-10-28T10:18:00.339Z,72.01
2022-10-28T10:22:59.068Z,73.25
2022-10-28T10:28:14.510Z,72.41
2022-10-28T10:33:35.980Z,72.88
2022-10-28T10:38:35.996Z,73.08
2022-10-28T10:43:36.770Z,73.40
2022-10-28T10:48:36.537Z,72.54
2022-10-28T10:53:38.101Z,73.73
2022-10-28T10:58:50.082Z,73.24
2022-10-28T11:03:51.850Z,73.53
2022-10-28T11:08:57.125Z,73.61
2022-10-28T11:14:08.644Z,73.36
2022-10-28T11:19:27.952Z,73.16
2022-10-28T11:25:00.925Z,70.87
2022-10-28T11:30:00.915Z,69.77
2022-10-28T11:35:06.641Z,70.86
2022-10-28T11:40:27.756Z,71.10
2022-10-28T11:45:34.526Z,70.78
2022-10-28T11:50:42.407Z,70.78
2022-10-28T11:56:03.322Z,68.81
2022-10-28T12:01:33.799Z,68.65
2022-10-28T12:06:51.263Z,67.96
2022-10-28T12:12:05.571Z,67.38
2022-10-28T12:17:29.326Z,67.08
2022-10-28T12:22:35.054Z,67.74
2022-10-28T12:27:40.502Z,67.56
2022-10-28T12:32:41.396Z,66.92
2022-10-28T12:37:49.175Z,67.72
2022-10-28T12:42:54.695Z,68.35
2022-10-28T12:48:15.574Z,68.57
2022-10-28T12:53:35.924Z,69.12
2022-10-28T12:58:56.076Z,69.46
2022-10-28T13:03:55.046Z,69.26
2022-10-28T13:09:12.713Z,69.46
2022-10-28T13:14:29.575Z,69.55
2022-10-28T13:19:56.395Z,69.38
2022-10-28T13:25:10.050Z,69.50
2022-10-28T13:30:19.805Z,69.59
2022-10-28T13:35:28.115Z,68.78
2022-10-28T13:40:33.840Z,68.56
2022-10-28T13:45:55.106Z,68.86
2022-10-28T13:51:14.060Z,67.81
2022-10-28T13:56:25.309Z,67.77
2022-10-28T14:02:01.622Z,68.67
2022-10-28T14:07:02.537Z,69.08
2022-10-28T14:12:08.876Z,69.03
2022-10-28T14:17:20.991Z,69.43
2022-10-28T14:22:32.662Z,70.24
2022-10-28T14:27:42.103Z,70.24
2022-10-28T14:32:50.133Z,71.25
2022-10-28T14:38:06.846Z,71.24
2022-10-28T14:43:30.549Z,71.41
2022-10-28T14:48:41.564Z,71.63
2022-10-28T14:53:42.476Z,72.43
2022-10-28T14:58:43.117Z,72.36
2022-10-28T15:03:43.622Z,73.69
2022-10-28T15:08:42.877Z,72.30
2022-10-28T15:13:41.596Z,72.38
2022-10-28T15:18:46.729Z,73.02
2022-10-28T15:23:57.644Z,73.19
2022-10-28T15:28:56.443Z,73.29
2022-10-28T15:33:55.073Z,73.08
2022-10-28T15:39:08.145Z,73.50
2022-10-28T15:44:42.759Z,73.36
2022-10-28T15:49:41.736Z,74.23
2022-10-28T15:54:40.823Z,74.67
2022-10-28T15:59:39.495Z,74.54
2022-10-28T16:04:44.002Z,74.30
2022-10-28T16:09:47.454Z,74.92
2022-10-28T16:14:53.890Z,74.70
2022-10-28T16:20:24.099Z,75.35
2022-10-28T16:25:23.137Z,74.87
2022-10-28T16:35:23.095Z,74.52
2022-10-28T16:45:40.530Z,74.90
2022-10-28T16:50:41.034Z,74.91
2022-10-28T16:55:40.994Z,74.74
2022-10-28T17:00:40.064Z,74.64
2022-10-28T17:05:38.773Z,74.91
2022-10-28T17:10:40.392Z,74.79
2022-10-28T17:15:39.826Z,74.43
2022-10-28T17:20:38.968Z,74.71
2022-10-28T17:25:37.948Z,74.87
2022-10-28T17:30:36.952Z,74.79
2022-10-28T17:35:35.644Z,74.77
2022-10-28T17:40:34.318Z,75.41
2022-10-28T17:45:33.011Z,75.70
2022-10-28T17:50:31.680Z,75.44
2022-10-28T17:55:31.156Z,75.52
2022-10-28T18:00:30.094Z,75.61
2022-10-28T18:05:28.874Z,75.40
2022-10-28T18:10:27.577Z,75.91
2022-10-28T18:15:26.271Z,77.03
2022-10-28T18:20:24.936Z,76.66
2022-10-28T18:25:23.919Z,76.39
2022-10-28T18:30:22.616Z,76.42
2022-10-28T18:35:21.342Z,76.99
2022-10-28T18:40:20.016Z,76.11
2022-10-28T18:45:18.949Z,76.97
2022-10-28T18:50:17.843Z,77.11
2022-10-28T18:55:16.680Z,77.16
2022-10-28T19:00:18.337Z,77.14
2022-10-28T19:05:18.284Z,77.23
2022-10-28T19:10:16.930Z,77.46
2022-10-28T19:15:16.300Z,77.17
2022-10-28T19:20:15.049Z,77.39
2022-10-28T19:25:14.001Z,77.19
2022-10-28T19:30:13.712Z,77.08
2022-10-28T19:35:12.637Z,76.96
2022-10-28T19:40:11.732Z,77.98
2022-10-28T19:45:10.504Z,77.76
2022-10-28T19:50:09.686Z,77.87
2022-10-28T19:55:13.698Z,77.99
2022-10-28T20:00:13.908Z,78.40
2022-10-28T20:05:12.560Z,78.68
2022-10-28T20:10:11.531Z,78.71
2022-10-28T20:15:10.441Z,78.82
2022-10-28T20:20:09.675Z,78.65
2022-10-28T20:25:08.935Z,78.76
2022-10-28T20:30:08.064Z,78.57
2022-10-28T20:35:06.851Z,78.45
2022-10-28T20:40:07.604Z,78.30
2022-10-28T20:45:06.876Z,78.11
2022-10-28T20:50:06.934Z,78.80
2022-10-28T20:55:05.899Z,78.58
2022-10-28T21:00:06.403Z,78.56
2022-10-28T21:05:05.692Z,78.61
2022-10-28T21:10:04.582Z,78.45
2022-10-28T21:15:03.589Z,78.92
2022-10-28T21:25:06.636Z,78.75
2022-10-28T21:30:06.070Z,79.54
2022-10-28T21:35:05.844Z,80.00
2022-10-28T21:40:05.063Z,79.54
2022-10-28T21:45:04.454Z,79.17
2022-10-28T21:50:03.718Z,79.51
2022-10-28T21:55:09.781Z,80.51
2022-10-28T22:00:19.157Z,80.74
2022-10-28T22:05:18.032Z,80.43
2022-10-28T22:10:16.863Z,80.34
2022-10-28T22:15:16.132Z,80.54
2022-10-28T22:20:15.307Z,81.06
2022-10-28T22:25:14.098Z,80.90
2022-10-28T22:30:13.837Z,81.13
2022-10-28T22:35:12.621Z,81.01
2022-10-28T22:40:11.517Z,80.94
2022-10-28T22:45:10.477Z,80.36
2022-10-28T22:50:09.578Z,80.94
2022-10-28T22:55:08.616Z,80.54
2022-10-28T23:00:08.213Z,81.83
2022-10-28T23:05:07.703Z,81.46
2022-10-28T23:10:06.833Z,81.95
2022-10-28T23:15:06.111Z,82.49
2022-10-28T23:20:05.330Z,82.59
2022-10-28T23:25:04.508Z,82.29
2022-10-28T23:30:03.308Z,82.76
2022-10-28T23:35:02.015Z,82.52
2022-10-28T23:40:00.798Z,83.28
2022-10-28T23:44:59.616Z,82.85
2022-10-28T23:49:58.293Z,82.76
2022-10-28T23:54:57.033Z,83.35
2022-10-28T23:59:55.697Z,83.25
